createdAt,value
2019-05-30T00:00:11.364Z,7.25
2019-05-30T00:02:26.934Z,6.78
2019-05-30T00:04:56.102Z,6.35
2019-05-30T00:07:24.546Z,6.60
2019-05-30T00:09:54.243Z,7.00
2019-05-30T00:12:22.775Z,6.60
2019-05-30T00:14:51.207Z,7.55
2019-05-30T00:17:19.618Z,6.65
2019-05-30T00:19:48.041Z,7.22
2019-05-30T00:22:16.456Z,6.47
2019-05-30T00:24:44.868Z,6.65
2019-05-30T00:27:13.299Z,6.15
2019-05-30T00:29:41.711Z,7.95
2019-05-30T00:32:10.143Z,7.60
2019-05-30T00:34:38.560Z,7.87
2019-05-30T00:37:06.986Z,7.28
2019-05-30T00:39:35.392Z,8.00
2019-05-30T00:42:04.285Z,7.78
2019-05-30T00:44:32.810Z,8.58
2019-05-30T00:47:02.444Z,7.40
2019-05-30T00:49:31.019Z,7.70
2019-05-30T00:52:00.547Z,8.48
2019-05-30T00:54:29.138Z,7.95
2019-05-30T00:56:58.575Z,7.83
2019-05-30T00:59:27.068Z,7.78
2019-05-30T01:01:56.534Z,7.47
2019-05-30T01:04:25.100Z,7.30
2019-05-30T01:06:53.521Z,7.15
2019-05-30T01:09:21.919Z,7.80
2019-05-30T01:11:50.353Z,7.97
2019-05-30T01:14:18.756Z,8.43
2019-05-30T01:16:47.182Z,7.53
2019-05-30T01:19:15.591Z,7.62
2019-05-30T01:21:44.093Z,8.45
2019-05-30T01:24:12.571Z,7.85
2019-05-30T01:26:40.999Z,7.78
2019-05-30T01:29:09.414Z,8.30
2019-05-30T01:31:37.849Z,8.90
2019-05-30T01:34:06.263Z,8.98
2019-05-30T01:36:34.709Z,9.28
2019-05-30T01:39:03.808Z,7.35
2019-05-30T01:41:32.395Z,7.83
2019-05-30T01:44:01.837Z,7.65
2019-05-30T01:46:30.411Z,7.55
2019-05-30T01:49:00.154Z,8.35
2019-05-30T01:51:28.723Z,7.92
2019-05-30T01:53:58.299Z,7.62
2019-05-30T01:56:26.844Z,7.60
2019-05-30T01:58:55.276Z,7.15
2019-05-30T02:01:25.388Z,6.72
2019-05-30T02:03:53.906Z,8.28
2019-05-30T02:06:22.307Z,7.83
2019-05-30T02:08:50.805Z,8.28
2019-05-30T02:11:19.214Z,6.95
2019-05-30T02:13:47.628Z,7.37
2019-05-30T02:16:16.034Z,7.33
2019-05-30T02:18:44.470Z,7.60
2019-05-30T02:21:12.879Z,7.08
2019-05-30T02:23:41.298Z,6.97
2019-05-30T02:26:10.596Z,8.35
2019-05-30T02:28:39.206Z,7.30
2019-05-30T02:31:09.408Z,7.45
2019-05-30T02:33:37.763Z,6.92
2019-05-30T02:36:07.865Z,7.85
2019-05-30T02:38:36.467Z,6.70
2019-05-30T02:41:05.773Z,7.30
2019-05-30T02:43:35.084Z,7.65
2019-05-30T02:46:05.689Z,7.17
2019-05-30T02:48:33.711Z,8.10
2019-05-30T02:51:03.386Z,7.28
2019-05-30T02:53:32.028Z,6.83
2019-05-30T02:56:01.425Z,8.00
2019-05-30T02:58:29.935Z,7.60
2019-05-30T03:00:58.351Z,7.85
2019-05-30T03:03:26.848Z,7.72
2019-05-30T03:05:55.628Z,7.85
2019-05-30T03:08:24.386Z,7.62
2019-05-30T03:10:52.931Z,8.85
2019-05-30T03:13:22.020Z,8.60
2019-05-30T03:15:50.502Z,7.62
2019-05-30T03:18:18.939Z,7.62
2019-05-30T03:20:47.419Z,7.65
2019-05-30T03:23:15.840Z,8.65
2019-05-30T03:25:44.311Z,6.78
2019-05-30T03:28:13.672Z,7.83
2019-05-30T03:30:44.032Z,9.25
2019-05-30T03:33:32.212Z,8.23
2019-05-30T03:35:44.080Z,7.00
2019-05-30T03:38:15.375Z,7.03
2019-05-30T03:40:43.102Z,7.70
2019-05-30T03:43:13.252Z,7.78
2019-05-30T03:45:43.718Z,7.67
2019-05-30T03:48:16.196Z,8.20
2019-05-30T03:50:48.025Z,8.28
2019-05-30T03:53:16.599Z,7.87
2019-05-30T03:55:48.145Z,8.10
2019-05-30T03:58:22.512Z,10.08
2019-05-30T04:00:56.923Z,8.70
2019-05-30T04:03:43.503Z,8.60
2019-05-30T04:06:23.646Z,7.50
2019-05-30T04:08:55.158Z,8.05
2019-05-30T04:11:26.640Z,7.95
2019-05-30T04:13:58.137Z,7.97
2019-05-30T04:16:26.645Z,7.58
2019-05-30T04:18:55.107Z,8.33
2019-05-30T04:21:23.518Z,8.45
2019-05-30T04:23:51.938Z,8.38
2019-05-30T04:26:20.367Z,8.83
2019-05-30T04:28:48.808Z,9.43
2019-05-30T04:31:19.194Z,8.33
2019-05-30T04:33:47.365Z,7.42
2019-05-30T04:36:16.973Z,8.25
2019-05-30T04:38:46.064Z,8.17
2019-05-30T04:41:16.076Z,8.75
2019-05-30T04:43:44.623Z,8.35
2019-05-30T04:46:16.011Z,7.12
2019-05-30T04:48:43.184Z,7.25
2019-05-30T04:51:12.512Z,6.42
2019-05-30T04:53:41.740Z,6.17
2019-05-30T04:56:10.382Z,6.92
2019-05-30T04:58:42.258Z,7.60
2019-05-30T05:01:09.005Z,8.20
2019-05-30T05:03:45.615Z,9.20
2019-05-30T05:06:07.604Z,10.20
2019-05-30T05:08:36.033Z,12.47
2019-05-30T05:11:04.530Z,12.47
2019-05-30T05:13:32.944Z,10.68
2019-05-30T05:16:01.368Z,9.70
2019-05-30T05:18:29.793Z,9.25
2019-05-30T05:20:58.211Z,9.35
2019-05-30T05:23:26.630Z,11.43
2019-05-30T05:26:00.817Z,9.95
2019-05-30T05:28:25.195Z,10.95
2019-05-30T05:30:53.639Z,11.10
2019-05-30T05:33:22.684Z,11.30
2019-05-30T05:35:51.162Z,12.18
2019-05-30T05:38:20.180Z,11.25
2019-05-30T05:40:48.704Z,12.37
2019-05-30T05:43:18.582Z,13.15
2019-05-30T05:45:47.251Z,13.75
2019-05-30T05:48:16.540Z,13.05
2019-05-30T05:50:45.135Z,12.70
2019-05-30T05:53:13.555Z,13.60
2019-05-30T05:55:41.994Z,13.20
2019-05-30T05:58:10.412Z,13.48
2019-05-30T06:00:38.838Z,14.58
2019-05-30T06:03:07.257Z,14.05
2019-05-30T06:05:35.688Z,13.85
2019-05-30T06:08:04.128Z,13.43
2019-05-30T06:10:32.555Z,12.47
2019-05-30T06:13:00.975Z,13.22
2019-05-30T06:15:29.414Z,12.78
2019-05-30T06:17:57.831Z,12.45
2019-05-30T06:20:27.360Z,12.85
2019-05-30T06:22:55.944Z,12.25
2019-05-30T06:25:27.190Z,11.93
2019-05-30T06:27:54.514Z,11.77
2019-05-30T06:30:24.365Z,12.60
2019-05-30T06:32:53.032Z,12.13
2019-05-30T06:35:21.827Z,11.35
2019-05-30T06:37:51.489Z,11.65
2019-05-30T06:40:21.265Z,11.85
2019-05-30T06:42:49.904Z,12.33
2019-05-30T06:45:20.583Z,12.93
2019-05-30T06:47:48.916Z,13.40
2019-05-30T06:50:17.408Z,11.28
2019-05-30T06:52:45.959Z,12.03
2019-05-30T06:55:14.652Z,11.22
2019-05-30T06:57:43.109Z,11.40
2019-05-30T07:00:11.864Z,10.43
2019-05-30T07:02:40.366Z,10.65
2019-05-30T07:05:09.901Z,10.10
2019-05-30T07:07:39.052Z,9.37
2019-05-30T07:10:08.595Z,9.53
2019-05-30T07:12:37.103Z,9.48
2019-05-30T07:15:08.959Z,9.40
2019-05-30T07:17:37.387Z,8.88
2019-05-30T07:20:09.365Z,9.08
2019-05-30T07:22:37.790Z,9.68
2019-05-30T07:25:07.638Z,8.98
2019-05-30T07:27:36.211Z,8.78
2019-05-30T07:30:08.455Z,8.65
2019-05-30T07:32:36.999Z,9.05
2019-05-30T07:35:08.710Z,8.73
2019-05-30T07:37:37.473Z,8.75
2019-05-30T07:40:09.039Z,9.38
2019-05-30T07:42:37.531Z,8.53
2019-05-30T07:45:11.057Z,8.55
2019-05-30T07:47:39.498Z,8.98
2019-05-30T07:50:09.542Z,7.70
2019-05-30T07:52:39.022Z,7.20
2019-05-30T07:55:09.004Z,7.97
2019-05-30T07:57:40.960Z,7.70
2019-05-30T08:00:10.360Z,7.40
2019-05-30T08:02:39.039Z,7.87
2019-05-30T08:05:23.029Z,7.53
2019-05-30T08:10:09.540Z,7.72
2019-05-30T08:12:38.364Z,7.97
2019-05-30T08:15:09.542Z,7.25
2019-05-30T08:20:07.415Z,7.92
2019-05-30T08:22:36.199Z,7.92
2019-05-30T08:25:06.712Z,6.87
2019-05-30T08:27:36.191Z,6.33
2019-05-30T08:30:07.278Z,6.12
2019-05-30T08:32:36.848Z,6.33
2019-05-30T08:35:06.377Z,7.22
2019-05-30T08:37:35.169Z,5.95
2019-05-30T08:40:07.489Z,5.42
2019-05-30T08:42:35.923Z,5.85
2019-05-30T08:45:09.650Z,5.12
2019-05-30T08:47:36.423Z,5.60
2019-05-30T08:50:06.642Z,4.92
2019-05-30T08:52:36.354Z,4.22
2019-05-30T08:55:08.445Z,4.33
2019-05-30T08:57:36.938Z,4.90
2019-05-30T09:00:08.161Z,4.50
2019-05-30T09:02:36.633Z,4.58
2019-05-30T09:05:07.716Z,4.12
2019-05-30T09:07:36.476Z,5.80
2019-05-30T09:10:09.638Z,4.80
2019-05-30T09:12:40.013Z,4.25
2019-05-30T09:15:10.419Z,3.83
2019-05-30T09:17:40.406Z,3.42
2019-05-30T09:20:10.404Z,4.20
2019-05-30T09:22:39.803Z,3.67
2019-05-30T09:25:16.455Z,3.45
2019-05-30T09:27:46.443Z,4.28
2019-05-30T09:30:17.251Z,3.58
2019-05-30T09:32:46.843Z,4.58
2019-05-30T09:35:17.499Z,3.45
2019-05-30T09:37:46.425Z,2.92
2019-05-30T09:40:17.048Z,2.90
2019-05-30T09:42:46.943Z,2.42
2019-05-30T09:45:17.477Z,2.33
2019-05-30T09:47:47.190Z,2.58
2019-05-30T09:50:18.019Z,2.87
2019-05-30T09:52:47.130Z,2.90
2019-05-30T09:55:16.375Z,2.25
2019-05-30T09:57:45.881Z,3.08
2019-05-30T10:00:17.501Z,2.85
2019-05-30T10:02:46.746Z,2.45
2019-05-30T10:05:17.523Z,3.15
2019-05-30T10:07:47.507Z,2.52
2019-05-30T10:10:17.095Z,3.12
2019-05-30T10:12:46.915Z,3.35
2019-05-30T10:15:16.227Z,2.27
2019-05-30T10:17:46.261Z,2.90
2019-05-30T10:20:15.558Z,2.55
2019-05-30T10:22:44.565Z,3.17
2019-05-30T10:25:14.353Z,2.83
2019-05-30T10:27:42.770Z,3.10
2019-05-30T10:30:11.939Z,2.98
2019-05-30T10:32:40.428Z,3.37
2019-05-30T10:35:09.034Z,3.37
2019-05-30T10:37:37.519Z,2.90
2019-05-30T10:40:08.891Z,2.62
2019-05-30T10:42:37.371Z,2.10
2019-05-30T10:45:10.341Z,2.02
2019-05-30T10:47:38.763Z,2.00
2019-05-30T10:50:08.919Z,1.70
2019-05-30T10:52:37.397Z,1.45
2019-05-30T10:55:07.663Z,1.92
2019-05-30T10:57:36.215Z,1.90
2019-05-30T11:00:11.294Z,2.47
2019-05-30T11:02:40.205Z,1.90
2019-05-30T11:05:09.494Z,2.17
2019-05-30T11:08:01.242Z,1.70
2019-05-30T11:10:37.866Z,1.72
2019-05-30T11:13:08.586Z,1.92
2019-05-30T11:15:37.081Z,1.80
2019-05-30T11:18:06.041Z,1.55
2019-05-30T11:20:34.531Z,1.70
2019-05-30T11:23:02.956Z,1.50
2019-05-30T11:25:32.717Z,1.40
2019-05-30T11:28:01.296Z,1.27
2019-05-30T11:30:30.166Z,1.10
2019-05-30T11:32:59.458Z,2.72
2019-05-30T11:35:28.205Z,1.20
2019-05-30T11:37:57.266Z,1.50
2019-05-30T11:40:25.957Z,1.62
2019-05-30T11:42:55.487Z,1.50
2019-05-30T11:45:24.218Z,1.20
2019-05-30T11:47:53.798Z,1.10
2019-05-30T11:50:22.879Z,1.40
2019-05-30T11:52:51.734Z,1.65
2019-05-30T11:55:20.365Z,1.35
2019-05-30T11:57:49.871Z,1.85
2019-05-30T12:00:21.795Z,1.45
2019-05-30T12:02:50.313Z,1.62
2019-05-30T12:05:19.319Z,1.42
2019-05-30T12:07:47.736Z,1.60
2019-05-30T12:10:18.008Z,1.70
2019-05-30T12:12:46.447Z,0.90
2019-05-30T12:15:18.278Z,1.50
2019-05-30T12:17:46.688Z,1.35
2019-05-30T12:20:17.087Z,1.27
2019-05-30T12:22:45.507Z,1.77
2019-05-30T12:25:14.191Z,1.70
2019-05-30T12:27:42.627Z,1.80
2019-05-30T12:30:12.082Z,1.87
2019-05-30T12:32:40.585Z,1.40
2019-05-30T12:35:11.044Z,1.47
2019-05-30T12:37:54.151Z,1.95
2019-05-30T12:40:10.946Z,1.52
2019-05-30T12:42:39.393Z,2.47
2019-05-30T12:45:09.045Z,1.67
2019-05-30T12:47:37.569Z,1.22
2019-05-30T12:50:08.219Z,1.62
2019-05-30T12:52:36.722Z,1.47
2019-05-30T12:55:11.394Z,1.12
2019-05-30T12:57:39.903Z,1.37
2019-05-30T13:00:18.446Z,1.27
2019-05-30T13:02:40.627Z,1.10
2019-05-30T13:05:09.892Z,1.40
2019-05-30T13:07:38.310Z,1.00
2019-05-30T13:10:08.362Z,1.47
2019-05-30T13:12:36.867Z,1.27
2019-05-30T13:15:09.139Z,1.40
2019-05-30T13:17:37.686Z,1.30
2019-05-30T13:20:07.858Z,1.42
2019-05-30T13:22:36.522Z,1.50
2019-05-30T13:25:10.091Z,1.32
2019-05-30T13:27:38.599Z,2.30
2019-05-30T13:30:11.266Z,1.65
2019-05-30T13:32:39.765Z,2.02
2019-05-30T13:35:09.124Z,1.17
2019-05-30T13:37:37.626Z,1.27
2019-05-30T13:40:23.568Z,1.52
2019-05-30T13:42:38.834Z,1.50
2019-05-30T13:45:08.342Z,1.35
2019-05-30T13:47:37.367Z,1.87
2019-05-30T13:50:13.170Z,2.75
2019-05-30T13:52:39.189Z,1.32
2019-05-30T13:55:10.075Z,1.52
2019-05-30T13:57:38.699Z,1.37
2019-05-30T14:00:10.649Z,1.45
2019-05-30T14:02:40.113Z,1.40
2019-05-30T14:05:10.620Z,1.45
2019-05-30T14:07:46.207Z,1.27
2019-05-30T14:10:15.968Z,1.40
2019-05-30T14:12:44.392Z,1.12
2019-05-30T14:15:14.816Z,1.02
2019-05-30T14:17:43.398Z,1.35
2019-05-30T14:20:14.232Z,1.37
2019-05-30T14:22:42.738Z,1.45
2019-05-30T14:25:12.963Z,1.30
2019-05-30T14:27:41.418Z,1.73
2019-05-30T14:30:13.132Z,1.57
2019-05-30T14:32:41.755Z,1.70
2019-05-30T14:35:13.291Z,2.02
2019-05-30T14:37:40.935Z,1.05
2019-05-30T14:40:11.328Z,1.30
2019-05-30T14:42:39.847Z,1.40
2019-05-30T14:45:08.737Z,0.93
2019-05-30T14:47:37.242Z,1.10
2019-05-30T14:50:08.767Z,1.20
2019-05-30T14:52:37.383Z,1.42
2019-05-30T14:55:10.981Z,1.50
2019-05-30T14:57:39.649Z,1.07
2019-05-30T15:00:11.324Z,1.30
2019-05-30T15:02:40.388Z,1.85
2019-05-30T15:05:09.359Z,1.12
2019-05-30T15:07:38.102Z,1.20
2019-05-30T15:10:08.722Z,1.20
2019-05-30T15:12:37.379Z,1.30
2019-05-30T15:15:09.044Z,1.35
2019-05-30T15:17:37.614Z,2.40
2019-05-30T15:20:11.960Z,1.35
2019-05-30T15:22:40.355Z,1.20
2019-05-30T15:25:09.941Z,1.20
2019-05-30T15:27:38.655Z,1.95
2019-05-30T15:30:08.624Z,1.00
2019-05-30T15:32:37.054Z,1.30
2019-05-30T15:35:06.911Z,1.10
2019-05-30T15:37:35.406Z,1.32
2019-05-30T15:40:08.866Z,1.30
2019-05-30T15:42:37.531Z,1.00
2019-05-30T15:45:07.997Z,1.27
2019-05-30T15:47:36.630Z,1.50
2019-05-30T15:50:05.975Z,1.30
2019-05-30T15:52:34.481Z,1.30
2019-05-30T15:55:02.961Z,1.30
2019-05-30T15:57:31.381Z,1.37
2019-05-30T15:59:59.821Z,1.45
2019-05-30T16:02:28.225Z,1.60
2019-05-30T16:04:56.655Z,1.22
2019-05-30T16:07:25.066Z,1.10
2019-05-30T16:09:53.500Z,1.42
2019-05-30T16:12:21.920Z,1.45
2019-05-30T16:14:50.358Z,1.12
2019-05-30T16:17:19.667Z,1.30
2019-05-30T16:19:48.174Z,0.90
2019-05-30T16:22:16.596Z,1.30
2019-05-30T16:24:45.016Z,1.27
2019-05-30T16:27:13.657Z,1.40
2019-05-30T16:29:42.310Z,1.60
2019-05-30T16:32:10.738Z,12.95
2019-05-30T16:34:39.167Z,1.77
2019-05-30T16:37:07.663Z,7.50
2019-05-30T16:39:36.108Z,1.60
2019-05-30T16:42:04.669Z,1.55
2019-05-30T16:44:33.088Z,1.70
2019-05-30T16:47:01.522Z,2.20
2019-05-30T16:49:30.011Z,2.98
2019-05-30T16:51:58.428Z,2.00
2019-05-30T16:54:27.561Z,1.72
2019-05-30T16:56:56.063Z,1.60
2019-05-30T16:59:24.486Z,2.17
2019-05-30T17:01:57.863Z,4.20
2019-05-30T17:04:23.091Z,4.80
2019-05-30T17:06:51.494Z,4.47
2019-05-30T17:09:21.475Z,5.42
2019-05-30T17:11:50.092Z,2.33
2019-05-30T17:14:19.622Z,1.85
2019-05-30T17:16:48.231Z,1.52
2019-05-30T17:19:16.668Z,1.52
2019-05-30T17:21:45.094Z,1.70
2019-05-30T17:24:13.518Z,1.60
2019-05-30T17:26:42.227Z,1.85
2019-05-30T17:29:10.661Z,1.57
2019-05-30T17:31:39.082Z,1.60
2019-05-30T17:34:07.507Z,1.60
2019-05-30T17:36:35.922Z,1.55
2019-05-30T17:39:06.695Z,1.30
2019-05-30T17:41:35.099Z,1.50
2019-05-30T17:44:04.018Z,2.05
2019-05-30T17:46:32.561Z,1.90
2019-05-30T17:49:01.011Z,1.40
2019-05-30T17:51:30.008Z,1.40
2019-05-30T17:53:58.537Z,1.55
2019-05-30T17:56:28.103Z,1.40
2019-05-30T17:58:56.758Z,1.17
2019-05-30T18:01:26.090Z,2.90
2019-05-30T18:03:54.804Z,1.62
2019-05-30T18:06:24.356Z,1.35
2019-05-30T18:08:52.899Z,1.32
2019-05-30T18:11:21.330Z,1.50
2019-05-30T18:13:49.744Z,1.65
2019-05-30T18:16:18.176Z,1.55
2019-05-30T18:18:46.587Z,1.00
2019-05-30T18:21:15.020Z,1.10
2019-05-30T18:23:44.858Z,1.65
2019-05-30T18:26:13.442Z,1.57
2019-05-30T18:28:41.862Z,1.52
2019-05-30T18:31:10.359Z,1.37
2019-05-30T18:33:38.787Z,1.50
2019-05-30T18:36:07.210Z,1.67
2019-05-30T18:38:35.619Z,2.17
2019-05-30T18:41:11.521Z,1.60
2019-05-30T18:43:34.271Z,1.53
2019-05-30T18:46:02.691Z,1.65
2019-05-30T18:48:31.552Z,1.70
2019-05-30T18:51:00.182Z,1.35
2019-05-30T18:53:28.595Z,1.57
2019-05-30T18:55:57.036Z,1.12
2019-05-30T18:58:25.447Z,1.32
2019-05-30T19:00:53.867Z,1.55
2019-05-30T19:03:22.283Z,1.67
2019-05-30T19:05:50.706Z,1.40
2019-05-30T19:08:19.127Z,1.55
2019-05-30T19:10:47.551Z,1.30
2019-05-30T19:13:15.962Z,1.60
2019-05-30T19:15:44.387Z,1.50
2019-05-30T19:18:12.825Z,2.55
2019-05-30T19:20:41.244Z,1.72
2019-05-30T19:23:09.658Z,2.00
2019-05-30T19:25:38.088Z,2.77
2019-05-30T19:28:06.504Z,3.08
2019-05-30T19:30:35.014Z,4.30
2019-05-30T19:33:03.434Z,5.45
2019-05-30T19:35:33.095Z,5.28
2019-05-30T19:38:01.667Z,3.80
2019-05-30T19:40:30.086Z,4.47
2019-05-30T19:42:58.523Z,4.20
2019-05-30T19:45:27.924Z,3.90
2019-05-30T19:47:56.655Z,4.35
2019-05-30T19:50:25.053Z,4.17
2019-05-30T19:52:53.486Z,3.30
2019-05-30T19:55:21.909Z,3.65
2019-05-30T19:57:50.340Z,3.20
2019-05-30T20:00:18.829Z,3.95
2019-05-30T20:02:47.264Z,3.52
2019-05-30T20:05:15.965Z,3.50
2019-05-30T20:07:44.394Z,3.95
2019-05-30T20:10:13.254Z,3.62
2019-05-30T20:12:41.751Z,4.28
2019-05-30T20:15:12.207Z,3.62
2019-05-30T20:17:41.887Z,4.92
2019-05-30T20:20:11.238Z,4.30
2019-05-30T20:22:40.184Z,4.67
2019-05-30T20:25:10.007Z,5.28
2019-05-30T20:27:39.003Z,5.17
2019-05-30T20:30:08.971Z,4.55
2019-05-30T20:32:38.765Z,5.03
2019-05-30T20:35:08.159Z,5.10
2019-05-30T20:37:36.895Z,4.75
2019-05-30T20:40:07.298Z,4.70
2019-05-30T20:42:36.786Z,3.33
2019-05-30T20:45:10.049Z,4.00
2019-05-30T20:47:40.247Z,3.83
2019-05-30T20:50:10.758Z,3.40
2019-05-30T20:52:43.126Z,3.92
2019-05-30T20:55:09.930Z,4.12
2019-05-30T20:57:38.496Z,4.00
2019-05-30T21:00:08.991Z,4.03
2019-05-30T21:02:38.727Z,5.10
2019-05-30T21:05:07.947Z,4.30
2019-05-30T21:07:37.669Z,5.15
2019-05-30T21:10:07.659Z,5.35
2019-05-30T21:12:39.372Z,4.72
2019-05-30T21:15:07.827Z,5.23
2019-05-30T21:17:37.602Z,4.65
2019-05-30T21:20:11.159Z,4.83
2019-05-30T21:22:38.325Z,3.75
2019-05-30T21:25:09.993Z,4.45
2019-05-30T21:27:39.014Z,3.65
2019-05-30T21:30:08.058Z,3.67
2019-05-30T21:32:37.620Z,3.27
2019-05-30T21:35:07.467Z,3.90
2019-05-30T21:37:36.010Z,3.50
2019-05-30T21:40:07.627Z,3.92
2019-05-30T21:42:36.062Z,3.25
2019-05-30T21:45:06.883Z,3.45
2019-05-30T21:47:35.311Z,3.30
2019-05-30T21:50:24.583Z,3.17
2019-05-30T21:52:53.087Z,3.55
2019-05-30T21:55:21.859Z,5.70
2019-05-30T21:57:50.278Z,3.10
2019-05-30T22:00:25.067Z,2.75
2019-05-30T22:02:54.437Z,2.83
2019-05-30T22:05:23.406Z,2.70
2019-05-30T22:07:51.907Z,2.45
2019-05-30T22:10:20.314Z,2.67
2019-05-30T22:12:49.676Z,2.35
2019-05-30T22:15:18.380Z,2.10
2019-05-30T22:17:47.773Z,2.22
2019-05-30T22:20:16.674Z,2.45
2019-05-30T22:22:46.140Z,2.52
2019-05-30T22:25:14.857Z,2.58
2019-05-30T22:27:44.341Z,2.17
2019-05-30T22:30:13.611Z,2.40
2019-05-30T22:32:42.579Z,2.52
2019-05-30T22:35:11.508Z,2.58
2019-05-30T22:37:39.929Z,2.05
2019-05-30T22:40:08.674Z,2.30
2019-05-30T22:42:37.104Z,2.22
2019-05-30T22:45:06.659Z,1.95
2019-05-30T22:47:35.064Z,1.87
2019-05-30T22:50:04.958Z,1.75
2019-05-30T22:52:33.423Z,1.57
2019-05-30T22:55:01.849Z,1.67
2019-05-30T22:57:30.271Z,1.67
2019-05-30T22:59:58.694Z,1.70
2019-05-30T23:02:27.186Z,1.60
2019-05-30T23:04:56.402Z,1.75
2019-05-30T23:07:24.887Z,2.05
2019-05-30T23:09:53.962Z,1.85
2019-05-30T23:12:22.494Z,1.70
2019-05-30T23:14:52.157Z,1.55
2019-05-30T23:17:20.739Z,1.20
2019-05-30T23:19:49.227Z,1.30
2019-05-30T23:22:17.635Z,1.60
2019-05-30T23:24:47.141Z,1.47
2019-05-30T23:27:15.656Z,1.60
2019-05-30T23:29:44.083Z,1.45
2019-05-30T23:32:12.493Z,1.50
2019-05-30T23:34:40.917Z,1.47
2019-05-30T23:37:09.328Z,1.47
2019-05-30T23:39:37.750Z,1.47
2019-05-30T23:42:06.163Z,1.60
2019-05-30T23:44:34.590Z,2.00
2019-05-30T23:47:03.000Z,1.70
2019-05-30T23:49:31.434Z,1.77
2019-05-30T23:52:00.422Z,2.77
2019-05-30T23:54:29.019Z,1.77
2019-05-30T23:56:58.502Z,1.80
2019-05-30T23:59:27.142Z,1.70
